TRA2606 LGSA-EHRD
Flight info
| Callsign | TRA2606 |
|---|---|
| Flight time | 3h 27m |
| Altitude | 38000 |
| Route | SOKRI UB1 DDM UM619 YNN UL604 DIMIS DCT ABISO DCT ERKIR DCT BABEG DCT LIRSU DCT SOGRI L608 BUB Y28 HELEN |
| Aircraft | B738/M-SDE2E3FGHIJ1RWXYZ/LB1 |
Departure
| Time | 2026-05-07 13:45 |
|---|---|
| Airport | Chania International Airport (LGSA) |
Arrival
| Time | 2026-05-07 17:12 |
|---|---|
| Airport | Rotterdam The Hague Airport (EHRD) |
| Time | Latitude | Longitude | Altitude | Speed | Heading |
|---|---|---|---|---|---|
| 2026-05-07 13:12 | 35.53823 | 24.14205 | 555 ft | 0 kts | 22° |
| 2026-05-07 13:37 | 35.53806 | 24.14197 | 555 ft | 3 kts | 22° |
| 2026-05-07 13:37 | 35.53786 | 24.14187 | 555 ft | 3 kts | 22° |
| 2026-05-07 13:37 | 35.53769 | 24.14179 | 555 ft | 3 kts | 16° |
| 2026-05-07 13:38 | 35.53751 | 24.14177 | 566 ft | 3 kts | 335° |
| 2026-05-07 13:38 | 35.53737 | 24.14192 | 563 ft | 3 kts | 294° |
| 2026-05-07 13:38 | 35.53731 | 24.14211 | 555 ft | 0 kts | 292° |
| 2026-05-07 13:41 | 35.53732 | 24.14206 | 555 ft | 4 kts | 292° |
| 2026-05-07 13:41 | 35.53753 | 24.14143 | 563 ft | 9 kts | 292° |
| 2026-05-07 13:41 | 35.53777 | 24.14071 | 561 ft | 9 kts | 292° |
| 2026-05-07 13:41 | 35.53757 | 24.14006 | 558 ft | 9 kts | 214° |
| 2026-05-07 13:42 | 35.53704 | 24.13971 | 563 ft | 9 kts | 234° |
| 2026-05-07 13:42 | 35.53711 | 24.13902 | 559 ft | 8 kts | 291° |
| 2026-05-07 13:42 | 35.53732 | 24.13836 | 561 ft | 8 kts | 292° |
| 2026-05-07 13:42 | 35.53753 | 24.13773 | 556 ft | 8 kts | 292° |
| 2026-05-07 13:43 | 35.53773 | 24.13711 | 556 ft | 8 kts | 291° |
| 2026-05-07 13:43 | 35.53796 | 24.13641 | 562 ft | 10 kts | 292° |
| 2026-05-07 13:43 | 35.53822 | 24.13550 | 560 ft | 12 kts | 274° |
| 2026-05-07 13:43 | 35.53761 | 24.13481 | 565 ft | 13 kts | 204° |
| 2026-05-07 13:44 | 35.53683 | 24.13456 | 558 ft | 11 kts | 153° |
| 2026-05-07 13:44 | 35.53657 | 24.13502 | 557 ft | 0 kts | 111° |
| 2026-05-07 13:44 | 35.53621 | 24.13617 | 563 ft | 47 kts | 111° |
| 2026-05-07 13:44 | 35.53402 | 24.14286 | 563 ft | 120 kts | 111° |
| 2026-05-07 13:45 | 35.53026 | 24.15472 | 641 ft | 170 kts | 109° |
| 2026-05-07 13:45 | 35.52595 | 24.16783 | 1469 ft | 166 kts | 111° |
| 2026-05-07 13:45 | 35.52152 | 24.18166 | 2146 ft | 178 kts | 109° |
| 2026-05-07 13:45 | 35.51699 | 24.19637 | 2745 ft | 197 kts | 110° |
| 2026-05-07 13:46 | 35.51170 | 24.21292 | 3216 ft | 211 kts | 110° |
| 2026-05-07 13:46 | 35.50612 | 24.22986 | 3829 ft | 219 kts | 110° |
| 2026-05-07 13:46 | 35.50058 | 24.24751 | 4506 ft | 225 kts | 110° |
| 2026-05-07 13:46 | 35.49497 | 24.26551 | 5356 ft | 225 kts | 111° |
| 2026-05-07 13:47 | 35.48929 | 24.28346 | 6195 ft | 227 kts | 112° |
| 2026-05-07 13:47 | 35.48348 | 24.30162 | 6946 ft | 232 kts | 112° |
| 2026-05-07 13:47 | 35.47951 | 24.31394 | 7410 ft | 236 kts | 112° |
| 2026-05-07 13:47 | 35.47329 | 24.33322 | 7875 ft | 256 kts | 112° |
| 2026-05-07 13:48 | 35.46693 | 24.35483 | 8161 ft | 280 kts | 100° |
| 2026-05-07 13:48 | 35.46816 | 24.37887 | 8840 ft | 288 kts | 70° |
| 2026-05-07 13:48 | 35.47876 | 24.39970 | 9617 ft | 292 kts | 43° |
| 2026-05-07 13:48 | 35.49609 | 24.41264 | 10404 ft | 296 kts | 17° |
| 2026-05-07 13:49 | 35.51700 | 24.41578 | 10730 ft | 315 kts | 353° |
| 2026-05-07 13:49 | 35.53870 | 24.40796 | 10992 ft | 335 kts | 333° |
| 2026-05-07 13:49 | 35.55705 | 24.39063 | 11569 ft | 342 kts | 311° |
| 2026-05-07 13:49 | 35.57210 | 24.36798 | 12403 ft | 342 kts | 311° |
| 2026-05-07 13:50 | 35.58823 | 24.34639 | 13220 ft | 344 kts | 314° |
| 2026-05-07 13:50 | 35.60501 | 24.32515 | 13912 ft | 348 kts | 314° |
| 2026-05-07 13:50 | 35.62202 | 24.30384 | 14582 ft | 352 kts | 314° |
| 2026-05-07 13:50 | 35.63925 | 24.28211 | 15268 ft | 356 kts | 314° |
| 2026-05-07 13:51 | 35.65652 | 24.26014 | 15982 ft | 359 kts | 313° |
| 2026-05-07 13:51 | 35.67390 | 24.23788 | 16648 ft | 362 kts | 313° |
| 2026-05-07 13:51 | 35.69138 | 24.21536 | 17267 ft | 366 kts | 313° |
| 2026-05-07 13:51 | 35.70902 | 24.19253 | 17896 ft | 369 kts | 313° |
| 2026-05-07 13:52 | 35.72675 | 24.16954 | 18546 ft | 372 kts | 313° |
| 2026-05-07 13:52 | 35.74460 | 24.14636 | 19165 ft | 374 kts | 313° |
| 2026-05-07 13:52 | 35.76257 | 24.12300 | 19777 ft | 377 kts | 312° |
| 2026-05-07 13:52 | 35.78064 | 24.09948 | 20356 ft | 380 kts | 312° |
| 2026-05-07 13:53 | 35.79885 | 24.07576 | 20938 ft | 382 kts | 312° |
| 2026-05-07 13:53 | 35.81713 | 24.05193 | 21489 ft | 384 kts | 312° |
| 2026-05-07 13:53 | 35.83556 | 24.02789 | 22025 ft | 387 kts | 311° |
| 2026-05-07 13:53 | 35.85410 | 24.00368 | 22537 ft | 389 kts | 311° |
| 2026-05-07 13:54 | 35.87274 | 23.97934 | 23018 ft | 393 kts | 311° |
| 2026-05-07 13:54 | 35.89165 | 23.95461 | 23410 ft | 398 kts | 311° |
| 2026-05-07 13:54 | 35.91067 | 23.92974 | 23875 ft | 400 kts | 311° |
| 2026-05-07 13:54 | 35.92981 | 23.90467 | 24343 ft | 402 kts | 311° |
| 2026-05-07 13:55 | 35.94902 | 23.87951 | 24835 ft | 403 kts | 311° |
| 2026-05-07 13:55 | 35.96818 | 23.85440 | 25342 ft | 403 kts | 311° |
| 2026-05-07 13:55 | 35.98742 | 23.82914 | 25769 ft | 405 kts | 311° |
| 2026-05-07 13:55 | 36.00673 | 23.80379 | 26184 ft | 407 kts | 311° |
| 2026-05-07 13:56 | 36.02615 | 23.77826 | 26635 ft | 407 kts | 311° |
| 2026-05-07 13:56 | 36.04555 | 23.75275 | 27066 ft | 408 kts | 311° |
| 2026-05-07 13:56 | 36.06508 | 23.72730 | 27456 ft | 409 kts | 314° |
| 2026-05-07 13:56 | 36.08701 | 23.70472 | 27839 ft | 413 kts | 323° |
| 2026-05-07 13:57 | 36.11171 | 23.68621 | 28214 ft | 415 kts | 327° |
| 2026-05-07 13:57 | 36.13670 | 23.66825 | 28578 ft | 416 kts | 327° |
| 2026-05-07 13:57 | 36.16143 | 23.65045 | 28941 ft | 417 kts | 327° |
| 2026-05-07 13:57 | 36.18650 | 23.63232 | 29270 ft | 418 kts | 327° |
| 2026-05-07 13:58 | 36.21161 | 23.61405 | 29636 ft | 418 kts | 326° |
| 2026-05-07 13:58 | 36.23672 | 23.59570 | 29991 ft | 419 kts | 326° |
| 2026-05-07 13:58 | 36.26176 | 23.57734 | 30352 ft | 418 kts | 326° |
| 2026-05-07 13:58 | 36.28670 | 23.55900 | 30869 ft | 414 kts | 326° |
| 2026-05-07 13:59 | 36.31121 | 23.54096 | 31453 ft | 407 kts | 326° |
| 2026-05-07 13:59 | 36.33543 | 23.52312 | 31965 ft | 403 kts | 326° |
| 2026-05-07 13:59 | 36.35940 | 23.50544 | 32424 ft | 400 kts | 325° |
| 2026-05-07 13:59 | 36.38318 | 23.48787 | 32916 ft | 395 kts | 324° |
| 2026-05-07 14:00 | 36.40645 | 23.47044 | 33673 ft | 388 kts | 324° |
| 2026-05-07 14:00 | 36.42941 | 23.45332 | 34287 ft | 381 kts | 324° |
| 2026-05-07 14:00 | 36.45205 | 23.43674 | 34638 ft | 377 kts | 324° |
| 2026-05-07 14:01 | 36.49755 | 23.40323 | 34877 ft | 383 kts | 325° |
| 2026-05-07 14:01 | 36.52053 | 23.38660 | 35280 ft | 379 kts | 324° |
| 2026-05-07 14:01 | 36.54300 | 23.36998 | 35654 ft | 376 kts | 324° |
| 2026-05-07 14:01 | 36.56549 | 23.35333 | 35898 ft | 375 kts | 323° |
| 2026-05-07 14:02 | 36.58799 | 23.33654 | 36135 ft | 375 kts | 323° |
| 2026-05-07 14:02 | 36.61013 | 23.31962 | 36259 ft | 374 kts | 323° |
| 2026-05-07 14:02 | 36.63236 | 23.30277 | 36392 ft | 376 kts | 323° |
| 2026-05-07 14:02 | 36.65458 | 23.28558 | 36574 ft | 375 kts | 323° |
| 2026-05-07 14:03 | 36.67692 | 23.26884 | 36693 ft | 376 kts | 324° |
| 2026-05-07 14:03 | 36.69941 | 23.25242 | 36971 ft | 374 kts | 323° |
| 2026-05-07 14:03 | 36.72181 | 23.23595 | 37195 ft | 373 kts | 323° |
| 2026-05-07 14:03 | 36.74443 | 23.21984 | 37474 ft | 374 kts | 324° |
| 2026-05-07 14:04 | 36.76692 | 23.20363 | 37748 ft | 375 kts | 323° |
| 2026-05-07 14:04 | 36.78904 | 23.18719 | 38124 ft | 369 kts | 322° |
| 2026-05-07 14:04 | 36.81113 | 23.17042 | 38099 ft | 373 kts | 322° |
| 2026-05-07 14:05 | 36.85495 | 23.13706 | 38143 ft | 371 kts | 322° |
| 2026-05-07 14:05 | 36.89953 | 23.10341 | 38118 ft | 376 kts | 322° |
| 2026-05-07 14:06 | 36.94418 | 23.06985 | 38132 ft | 375 kts | 322° |
| 2026-05-07 14:06 | 36.98858 | 23.03650 | 38139 ft | 370 kts | 323° |
| 2026-05-07 14:07 | 37.03230 | 23.00339 | 38149 ft | 366 kts | 322° |
| 2026-05-07 14:07 | 37.07559 | 22.97059 | 38130 ft | 362 kts | 322° |
| 2026-05-07 14:08 | 37.11880 | 22.93700 | 38130 ft | 366 kts | 322° |
| 2026-05-07 14:08 | 37.16235 | 22.90439 | 38122 ft | 366 kts | 322° |
| 2026-05-07 14:09 | 37.20620 | 22.87161 | 38121 ft | 367 kts | 322° |
| 2026-05-07 14:09 | 37.25034 | 22.83817 | 38122 ft | 374 kts | 322° |
| 2026-05-07 14:10 | 37.29465 | 22.80450 | 38116 ft | 373 kts | 323° |
| 2026-05-07 14:10 | 37.33921 | 22.77111 | 38118 ft | 373 kts | 322° |
| 2026-05-07 14:11 | 37.38379 | 22.73751 | 38123 ft | 375 kts | 322° |
| 2026-05-07 14:11 | 37.42763 | 22.70333 | 38111 ft | 369 kts | 322° |
| 2026-05-07 14:12 | 37.47165 | 22.66997 | 38122 ft | 372 kts | 323° |
| 2026-05-07 14:12 | 37.51606 | 22.63708 | 38117 ft | 368 kts | 321° |
| 2026-05-07 14:13 | 37.55977 | 22.60292 | 38130 ft | 372 kts | 321° |
| 2026-05-07 14:13 | 37.60364 | 22.56886 | 38150 ft | 372 kts | 322° |
| 2026-05-07 14:14 | 37.64797 | 22.53413 | 38110 ft | 373 kts | 322° |
| 2026-05-07 14:14 | 37.69216 | 22.50047 | 38108 ft | 375 kts | 322° |
| 2026-05-07 14:15 | 37.73690 | 22.46635 | 38145 ft | 376 kts | 322° |
| 2026-05-07 14:15 | 37.78173 | 22.43193 | 38113 ft | 377 kts | 322° |
| 2026-05-07 14:16 | 37.82659 | 22.39733 | 38124 ft | 378 kts | 322° |
| 2026-05-07 14:16 | 37.87147 | 22.36266 | 38123 ft | 377 kts | 321° |
| 2026-05-07 14:17 | 37.91637 | 22.32788 | 38120 ft | 379 kts | 321° |
| 2026-05-07 14:17 | 37.96123 | 22.29311 | 38110 ft | 377 kts | 321° |
| 2026-05-07 14:18 | 38.00584 | 22.25846 | 38111 ft | 375 kts | 321° |
| 2026-05-07 14:18 | 38.05013 | 22.22404 | 38109 ft | 372 kts | 322° |
| 2026-05-07 14:19 | 38.09408 | 22.18981 | 38118 ft | 370 kts | 321° |
| 2026-05-07 14:19 | 38.13792 | 22.15559 | 38079 ft | 371 kts | 321° |
| 2026-05-07 14:20 | 38.18185 | 22.12127 | 38089 ft | 371 kts | 321° |
| 2026-05-07 14:20 | 38.22577 | 22.08691 | 38100 ft | 371 kts | 321° |
| 2026-05-07 14:21 | 38.26980 | 22.05241 | 38105 ft | 373 kts | 321° |
| 2026-05-07 14:21 | 38.31414 | 22.01761 | 38101 ft | 375 kts | 321° |
| 2026-05-07 14:22 | 38.35864 | 21.98263 | 38105 ft | 377 kts | 321° |
| 2026-05-07 14:22 | 38.40339 | 21.94743 | 38103 ft | 378 kts | 321° |
| 2026-05-07 14:23 | 38.44819 | 21.91213 | 38100 ft | 379 kts | 321° |
| 2026-05-07 14:23 | 38.49312 | 21.87669 | 38089 ft | 379 kts | 321° |
| 2026-05-07 14:24 | 38.53788 | 21.84133 | 38108 ft | 378 kts | 321° |
| 2026-05-07 14:24 | 38.58236 | 21.80610 | 38094 ft | 380 kts | 321° |
| 2026-05-07 14:25 | 38.62721 | 21.77055 | 38104 ft | 379 kts | 321° |
| 2026-05-07 14:25 | 38.67218 | 21.73484 | 38109 ft | 381 kts | 321° |
| 2026-05-07 14:26 | 38.71727 | 21.69899 | 38112 ft | 381 kts | 321° |
| 2026-05-07 14:26 | 38.76246 | 21.66299 | 38080 ft | 384 kts | 322° |
| 2026-05-07 14:27 | 38.80785 | 21.62681 | 38102 ft | 384 kts | 322° |
| 2026-05-07 14:27 | 38.85326 | 21.59055 | 38107 ft | 385 kts | 322° |
| 2026-05-07 14:28 | 38.89888 | 21.55405 | 38102 ft | 388 kts | 322° |
| 2026-05-07 14:28 | 38.94485 | 21.51721 | 38104 ft | 391 kts | 322° |
| 2026-05-07 14:29 | 38.99116 | 21.48006 | 38099 ft | 394 kts | 322° |
| 2026-05-07 14:29 | 39.03785 | 21.44252 | 38095 ft | 397 kts | 322° |
| 2026-05-07 14:30 | 39.08471 | 21.40481 | 38098 ft | 398 kts | 322° |
| 2026-05-07 14:30 | 39.13174 | 21.36688 | 38107 ft | 400 kts | 322° |
| 2026-05-07 14:31 | 39.17899 | 21.32874 | 38104 ft | 401 kts | 322° |
| 2026-05-07 14:31 | 39.22631 | 21.29049 | 38097 ft | 402 kts | 322° |
| 2026-05-07 14:32 | 39.27349 | 21.25227 | 38101 ft | 403 kts | 322° |
| 2026-05-07 14:32 | 39.32099 | 21.21371 | 38104 ft | 403 kts | 322° |
| 2026-05-07 14:33 | 39.36848 | 21.17517 | 38097 ft | 402 kts | 322° |
| 2026-05-07 14:33 | 39.41581 | 21.13665 | 38104 ft | 403 kts | 322° |
| 2026-05-07 14:34 | 39.46322 | 21.09796 | 38103 ft | 403 kts | 322° |
| 2026-05-07 14:34 | 39.51061 | 21.05926 | 38108 ft | 402 kts | 322° |
| 2026-05-07 14:35 | 39.54993 | 21.02711 | 38108 ft | 401 kts | 322° |
| 2026-05-07 14:35 | 39.59707 | 20.98849 | 38103 ft | 401 kts | 322° |
| 2026-05-07 14:36 | 39.64431 | 20.94972 | 38098 ft | 402 kts | 322° |
| 2026-05-07 14:36 | 39.69155 | 20.91089 | 38105 ft | 402 kts | 322° |
| 2026-05-07 14:37 | 39.73883 | 20.87195 | 38105 ft | 403 kts | 322° |
| 2026-05-07 14:37 | 39.80988 | 20.81335 | 38099 ft | 403 kts | 322° |
| 2026-05-07 14:38 | 39.85718 | 20.77426 | 38105 ft | 403 kts | 322° |
| 2026-05-07 14:38 | 39.90453 | 20.73506 | 38095 ft | 404 kts | 322° |
| 2026-05-07 14:39 | 39.95203 | 20.69565 | 38108 ft | 405 kts | 321° |
| 2026-05-07 14:39 | 39.99964 | 20.65609 | 38098 ft | 407 kts | 322° |
| 2026-05-07 14:40 | 40.04746 | 20.61630 | 38096 ft | 410 kts | 322° |
| 2026-05-07 14:40 | 40.09562 | 20.57560 | 38115 ft | 415 kts | 321° |
| 2026-05-07 14:41 | 40.14361 | 20.53280 | 38093 ft | 419 kts | 320° |
| 2026-05-07 14:41 | 40.19181 | 20.48940 | 38095 ft | 420 kts | 320° |
| 2026-05-07 14:42 | 40.23964 | 20.44651 | 38090 ft | 412 kts | 320° |
| 2026-05-07 14:42 | 40.28677 | 20.40425 | 38082 ft | 410 kts | 320° |
| 2026-05-07 14:43 | 40.33377 | 20.36203 | 38098 ft | 410 kts | 320° |
| 2026-05-07 14:43 | 40.38050 | 20.32001 | 38102 ft | 410 kts | 320° |
| 2026-05-07 14:44 | 40.42754 | 20.27764 | 38083 ft | 411 kts | 320° |
| 2026-05-07 14:44 | 40.47459 | 20.23520 | 38098 ft | 411 kts | 320° |
| 2026-05-07 14:45 | 40.52172 | 20.19263 | 38098 ft | 412 kts | 320° |
| 2026-05-07 14:45 | 40.56902 | 20.14981 | 38098 ft | 414 kts | 320° |
| 2026-05-07 14:46 | 40.61650 | 20.10676 | 38092 ft | 415 kts | 320° |
| 2026-05-07 14:46 | 40.66412 | 20.06351 | 38094 ft | 417 kts | 320° |
| 2026-05-07 14:47 | 40.71190 | 20.02004 | 38090 ft | 418 kts | 320° |
| 2026-05-07 14:47 | 40.75977 | 19.97641 | 38095 ft | 418 kts | 320° |
| 2026-05-07 14:48 | 40.80757 | 19.93279 | 38090 ft | 417 kts | 320° |
| 2026-05-07 14:48 | 40.85522 | 19.88923 | 38067 ft | 416 kts | 320° |
| 2026-05-07 14:49 | 40.90267 | 19.84576 | 38071 ft | 414 kts | 320° |
| 2026-05-07 14:49 | 40.94999 | 19.80231 | 38063 ft | 413 kts | 320° |
| 2026-05-07 14:50 | 40.99710 | 19.75899 | 38059 ft | 412 kts | 320° |
| 2026-05-07 14:50 | 41.04407 | 19.71570 | 38056 ft | 411 kts | 320° |
| 2026-05-07 14:51 | 41.09104 | 19.67235 | 38059 ft | 411 kts | 320° |
| 2026-05-07 14:51 | 41.13795 | 19.62897 | 38052 ft | 412 kts | 320° |
| 2026-05-07 14:52 | 41.18473 | 19.58563 | 38059 ft | 413 kts | 320° |
| 2026-05-07 14:52 | 41.23198 | 19.54178 | 38057 ft | 415 kts | 320° |
| 2026-05-07 14:53 | 41.27946 | 19.49765 | 38055 ft | 417 kts | 320° |
| 2026-05-07 14:53 | 41.32714 | 19.45326 | 38060 ft | 419 kts | 320° |
| 2026-05-07 14:54 | 41.37494 | 19.40865 | 38069 ft | 420 kts | 320° |
| 2026-05-07 14:54 | 41.42282 | 19.36391 | 38071 ft | 421 kts | 320° |
| 2026-05-07 14:55 | 41.47084 | 19.31896 | 38076 ft | 422 kts | 320° |
| 2026-05-07 14:55 | 41.51891 | 19.27388 | 38076 ft | 423 kts | 320° |
| 2026-05-07 14:56 | 41.56700 | 19.22870 | 38070 ft | 423 kts | 320° |
| 2026-05-07 14:56 | 41.61504 | 19.18349 | 38073 ft | 422 kts | 319° |
| 2026-05-07 14:57 | 41.66296 | 19.13829 | 38072 ft | 421 kts | 319° |
| 2026-05-07 14:57 | 41.71052 | 19.09333 | 38074 ft | 420 kts | 319° |
| 2026-05-07 14:58 | 41.75821 | 19.04818 | 38072 ft | 420 kts | 319° |
| 2026-05-07 14:58 | 41.80581 | 19.00304 | 38072 ft | 419 kts | 319° |
| 2026-05-07 14:59 | 41.85329 | 18.95792 | 38077 ft | 418 kts | 319° |
| 2026-05-07 14:59 | 41.90065 | 18.91281 | 38074 ft | 417 kts | 319° |
| 2026-05-07 15:00 | 41.94798 | 18.86766 | 38077 ft | 417 kts | 319° |
| 2026-05-07 15:00 | 41.99528 | 18.82247 | 38079 ft | 417 kts | 319° |
| 2026-05-07 15:01 | 42.04260 | 18.77715 | 38067 ft | 420 kts | 320° |
| 2026-05-07 15:01 | 42.09056 | 18.73111 | 38088 ft | 427 kts | 319° |
| 2026-05-07 15:02 | 42.13921 | 18.68432 | 38085 ft | 432 kts | 319° |
| 2026-05-07 15:02 | 42.18826 | 18.63713 | 38076 ft | 434 kts | 319° |
| 2026-05-07 15:03 | 42.23738 | 18.58976 | 38071 ft | 434 kts | 319° |
| 2026-05-07 15:03 | 42.28610 | 18.54269 | 38071 ft | 433 kts | 319° |
| 2026-05-07 15:04 | 42.33531 | 18.49506 | 38070 ft | 431 kts | 319° |
| 2026-05-07 15:04 | 42.38359 | 18.44822 | 38068 ft | 429 kts | 319° |
| 2026-05-07 15:05 | 42.43188 | 18.40128 | 38070 ft | 427 kts | 319° |
| 2026-05-07 15:05 | 42.47998 | 18.35440 | 38072 ft | 425 kts | 319° |
| 2026-05-07 15:06 | 42.52785 | 18.30771 | 38076 ft | 423 kts | 319° |
| 2026-05-07 15:06 | 42.57562 | 18.26097 | 38071 ft | 423 kts | 319° |
| 2026-05-07 15:07 | 42.62333 | 18.21421 | 38077 ft | 424 kts | 319° |
| 2026-05-07 15:07 | 42.67122 | 18.16716 | 38074 ft | 426 kts | 319° |
| 2026-05-07 15:08 | 42.71928 | 18.11989 | 38066 ft | 427 kts | 319° |
| 2026-05-07 15:08 | 42.76739 | 18.07248 | 38068 ft | 427 kts | 319° |
| 2026-05-07 15:09 | 42.81545 | 18.02501 | 38079 ft | 427 kts | 319° |
| 2026-05-07 15:09 | 42.86366 | 17.97733 | 38078 ft | 429 kts | 319° |
| 2026-05-07 15:10 | 42.91195 | 17.92945 | 38082 ft | 430 kts | 319° |
| 2026-05-07 15:10 | 42.95998 | 17.88174 | 38080 ft | 430 kts | 319° |
| 2026-05-07 15:11 | 43.00847 | 17.83348 | 38076 ft | 431 kts | 319° |
| 2026-05-07 15:11 | 43.05701 | 17.78507 | 38079 ft | 432 kts | 319° |
| 2026-05-07 15:12 | 43.10557 | 17.73654 | 38072 ft | 433 kts | 319° |
| 2026-05-07 15:12 | 43.15419 | 17.68785 | 38072 ft | 434 kts | 319° |
| 2026-05-07 15:13 | 43.20292 | 17.63894 | 38071 ft | 434 kts | 319° |
| 2026-05-07 15:13 | 43.25171 | 17.58991 | 38072 ft | 435 kts | 319° |
| 2026-05-07 15:14 | 43.30042 | 17.54086 | 38085 ft | 434 kts | 318° |
| 2026-05-07 15:14 | 43.34812 | 17.49285 | 38057 ft | 412 kts | 317° |
| 2026-05-07 15:15 | 43.39354 | 17.44700 | 38067 ft | 403 kts | 317° |
| 2026-05-07 15:15 | 43.43906 | 17.40069 | 38066 ft | 411 kts | 317° |
| 2026-05-07 15:16 | 43.48545 | 17.35348 | 38063 ft | 417 kts | 317° |
| 2026-05-07 15:16 | 43.53231 | 17.30580 | 38061 ft | 421 kts | 317° |
| 2026-05-07 15:17 | 43.57944 | 17.25777 | 38062 ft | 421 kts | 317° |
| 2026-05-07 15:17 | 43.62608 | 17.21022 | 38056 ft | 413 kts | 317° |
| 2026-05-07 15:18 | 43.67208 | 17.16317 | 38067 ft | 410 kts | 317° |
| 2026-05-07 15:18 | 43.71758 | 17.11649 | 38053 ft | 409 kts | 317° |
| 2026-05-07 15:19 | 43.76329 | 17.06952 | 38062 ft | 410 kts | 317° |
| 2026-05-07 15:19 | 43.80914 | 17.02232 | 38058 ft | 410 kts | 317° |
| 2026-05-07 15:20 | 43.85487 | 16.97512 | 38063 ft | 411 kts | 317° |
| 2026-05-07 15:20 | 43.90092 | 16.92752 | 38061 ft | 413 kts | 317° |
| 2026-05-07 15:21 | 43.94677 | 16.88005 | 38042 ft | 415 kts | 317° |
| 2026-05-07 15:21 | 43.99303 | 16.83206 | 38044 ft | 415 kts | 317° |
| 2026-05-07 15:22 | 44.03943 | 16.78384 | 38038 ft | 419 kts | 317° |
| 2026-05-07 15:22 | 44.08646 | 16.73480 | 38052 ft | 425 kts | 317° |
| 2026-05-07 15:23 | 44.12603 | 16.69349 | 38057 ft | 428 kts | 317° |
| 2026-05-07 15:23 | 44.17380 | 16.64353 | 38046 ft | 431 kts | 317° |
| 2026-05-07 15:24 | 44.22189 | 16.59316 | 38041 ft | 432 kts | 317° |
| 2026-05-07 15:24 | 44.26996 | 16.54273 | 38040 ft | 431 kts | 317° |
| 2026-05-07 15:25 | 44.31783 | 16.49238 | 38041 ft | 430 kts | 317° |
| 2026-05-07 15:25 | 44.36552 | 16.44211 | 38038 ft | 429 kts | 317° |
| 2026-05-07 15:26 | 44.41311 | 16.39182 | 38022 ft | 428 kts | 317° |
| 2026-05-07 15:26 | 44.46050 | 16.34167 | 38021 ft | 426 kts | 317° |
| 2026-05-07 15:27 | 44.50730 | 16.29201 | 38023 ft | 424 kts | 317° |
| 2026-05-07 15:27 | 44.55421 | 16.24214 | 38014 ft | 421 kts | 317° |
| 2026-05-07 15:28 | 44.60075 | 16.19256 | 38022 ft | 420 kts | 317° |
| 2026-05-07 15:28 | 44.64721 | 16.14295 | 38024 ft | 419 kts | 317° |
| 2026-05-07 15:29 | 44.69372 | 16.09318 | 38031 ft | 421 kts | 317° |
| 2026-05-07 15:29 | 44.74042 | 16.04308 | 38029 ft | 423 kts | 317° |
| 2026-05-07 15:30 | 44.78744 | 15.99254 | 38018 ft | 427 kts | 316° |
| 2026-05-07 15:30 | 44.83488 | 15.94145 | 38011 ft | 430 kts | 316° |
| 2026-05-07 15:31 | 44.88254 | 15.89006 | 38011 ft | 432 kts | 316° |
| 2026-05-07 15:31 | 44.93050 | 15.83824 | 38001 ft | 434 kts | 316° |
| 2026-05-07 15:32 | 44.97850 | 15.78625 | 38001 ft | 435 kts | 316° |
| 2026-05-07 15:32 | 45.02648 | 15.73416 | 37998 ft | 435 kts | 316° |
| 2026-05-07 15:33 | 45.07440 | 15.68200 | 38000 ft | 434 kts | 316° |
| 2026-05-07 15:33 | 45.12189 | 15.63021 | 38002 ft | 433 kts | 316° |
| 2026-05-07 15:34 | 45.16965 | 15.57803 | 37991 ft | 433 kts | 316° |
| 2026-05-07 15:34 | 45.21734 | 15.52581 | 37993 ft | 433 kts | 316° |
| 2026-05-07 15:35 | 45.26494 | 15.47355 | 37992 ft | 433 kts | 316° |
| 2026-05-07 15:35 | 45.31251 | 15.42118 | 37991 ft | 432 kts | 316° |
| 2026-05-07 15:36 | 45.36004 | 15.36876 | 37994 ft | 432 kts | 315° |
| 2026-05-07 15:36 | 45.40766 | 15.31617 | 37994 ft | 433 kts | 315° |
| 2026-05-07 15:37 | 45.45524 | 15.26347 | 37990 ft | 433 kts | 315° |
| 2026-05-07 15:37 | 45.50281 | 15.21068 | 37993 ft | 434 kts | 315° |
| 2026-05-07 15:38 | 45.55048 | 15.15768 | 37989 ft | 435 kts | 315° |
| 2026-05-07 15:38 | 45.59822 | 15.10445 | 37986 ft | 435 kts | 315° |
| 2026-05-07 15:39 | 45.64592 | 15.05118 | 37977 ft | 436 kts | 315° |
| 2026-05-07 15:39 | 45.69366 | 14.99773 | 37986 ft | 435 kts | 315° |
| 2026-05-07 15:40 | 45.74135 | 14.94421 | 37989 ft | 436 kts | 315° |
| 2026-05-07 15:40 | 45.78908 | 14.89050 | 37982 ft | 437 kts | 315° |
| 2026-05-07 15:41 | 45.82970 | 14.84385 | 37956 ft | 434 kts | 310° |
| 2026-05-07 15:41 | 45.87063 | 14.78127 | 37966 ft | 429 kts | 306° |
| 2026-05-07 15:42 | 45.91016 | 14.71711 | 37961 ft | 429 kts | 305° |
| 2026-05-07 15:42 | 45.94987 | 14.65314 | 37961 ft | 429 kts | 306° |
| 2026-05-07 15:43 | 45.98980 | 14.58939 | 37952 ft | 429 kts | 306° |
| 2026-05-07 15:43 | 46.02978 | 14.52573 | 37947 ft | 429 kts | 306° |
| 2026-05-07 15:44 | 46.06989 | 14.46174 | 37953 ft | 430 kts | 306° |
| 2026-05-07 15:44 | 46.10995 | 14.39767 | 37939 ft | 431 kts | 306° |
| 2026-05-07 15:45 | 46.15004 | 14.33340 | 37947 ft | 431 kts | 306° |
| 2026-05-07 15:45 | 46.19005 | 14.26911 | 37949 ft | 431 kts | 306° |
| 2026-05-07 15:46 | 46.25016 | 14.17224 | 37946 ft | 432 kts | 306° |
| 2026-05-07 15:47 | 46.29003 | 14.10778 | 37936 ft | 433 kts | 306° |
| 2026-05-07 15:47 | 46.33014 | 14.04281 | 37938 ft | 432 kts | 305° |
| 2026-05-07 15:48 | 46.37008 | 13.97799 | 37942 ft | 431 kts | 306° |
| 2026-05-07 15:48 | 46.40991 | 13.91313 | 37951 ft | 430 kts | 305° |
| 2026-05-07 15:49 | 46.44937 | 13.84871 | 37942 ft | 430 kts | 305° |
| 2026-05-07 15:49 | 46.48930 | 13.78337 | 37964 ft | 429 kts | 305° |
| 2026-05-07 15:50 | 46.52891 | 13.71843 | 37953 ft | 430 kts | 305° |
| 2026-05-07 15:50 | 46.56852 | 13.65331 | 37964 ft | 430 kts | 305° |
| 2026-05-07 15:51 | 46.60820 | 13.58792 | 37954 ft | 432 kts | 306° |
| 2026-05-07 15:51 | 46.64793 | 13.52229 | 37951 ft | 434 kts | 306° |
| 2026-05-07 15:52 | 46.68784 | 13.45622 | 37962 ft | 434 kts | 306° |
| 2026-05-07 15:52 | 46.72741 | 13.39056 | 37956 ft | 435 kts | 306° |
| 2026-05-07 15:53 | 46.76727 | 13.32427 | 37979 ft | 435 kts | 306° |
| 2026-05-07 15:53 | 46.80712 | 13.25779 | 37980 ft | 435 kts | 306° |
| 2026-05-07 15:54 | 46.84700 | 13.19111 | 37982 ft | 436 kts | 306° |
| 2026-05-07 15:54 | 46.88720 | 13.12374 | 37987 ft | 437 kts | 306° |
| 2026-05-07 15:55 | 46.92721 | 13.05651 | 37988 ft | 439 kts | 306° |
| 2026-05-07 15:55 | 46.96716 | 12.98921 | 38001 ft | 438 kts | 306° |
| 2026-05-07 15:56 | 47.00700 | 12.92198 | 38029 ft | 437 kts | 306° |
| 2026-05-07 15:56 | 47.04664 | 12.85488 | 38033 ft | 438 kts | 306° |
| 2026-05-07 15:57 | 47.08659 | 12.78708 | 38021 ft | 439 kts | 306° |
| 2026-05-07 15:57 | 47.12652 | 12.71917 | 38023 ft | 439 kts | 306° |
| 2026-05-07 15:58 | 47.16639 | 12.65120 | 38030 ft | 439 kts | 306° |
| 2026-05-07 15:58 | 47.20629 | 12.58298 | 38020 ft | 438 kts | 306° |
| 2026-05-07 15:59 | 47.24592 | 12.51502 | 38023 ft | 437 kts | 306° |
| 2026-05-07 15:59 | 47.28548 | 12.44702 | 38022 ft | 437 kts | 306° |
| 2026-05-07 16:00 | 47.32496 | 12.37901 | 38020 ft | 437 kts | 306° |
| 2026-05-07 16:00 | 47.36444 | 12.31084 | 38024 ft | 437 kts | 306° |
| 2026-05-07 16:01 | 47.40387 | 12.24258 | 38038 ft | 437 kts | 306° |
| 2026-05-07 16:01 | 47.44307 | 12.17454 | 38022 ft | 438 kts | 306° |
| 2026-05-07 16:02 | 47.48259 | 12.10575 | 38016 ft | 439 kts | 306° |
| 2026-05-07 16:02 | 47.52209 | 12.03685 | 38016 ft | 440 kts | 306° |
| 2026-05-07 16:03 | 47.56057 | 11.96661 | 38012 ft | 439 kts | 303° |
| 2026-05-07 16:03 | 47.59690 | 11.89393 | 38023 ft | 439 kts | 302° |
| 2026-05-07 16:04 | 47.63298 | 11.82089 | 38019 ft | 439 kts | 302° |
| 2026-05-07 16:04 | 47.66928 | 11.74788 | 38014 ft | 440 kts | 302° |
| 2026-05-07 16:05 | 47.70571 | 11.67483 | 38010 ft | 440 kts | 302° |
| 2026-05-07 16:05 | 47.74212 | 11.60176 | 38016 ft | 440 kts | 302° |
| 2026-05-07 16:06 | 47.77840 | 11.52874 | 38020 ft | 439 kts | 302° |
| 2026-05-07 16:06 | 47.81463 | 11.45561 | 38017 ft | 439 kts | 302° |
| 2026-05-07 16:07 | 47.85079 | 11.38242 | 38015 ft | 439 kts | 302° |
| 2026-05-07 16:07 | 47.88667 | 11.30962 | 38022 ft | 438 kts | 302° |
| 2026-05-07 16:08 | 47.91677 | 11.24839 | 38017 ft | 437 kts | 302° |
| 2026-05-07 16:08 | 47.95266 | 11.17520 | 38018 ft | 437 kts | 302° |
| 2026-05-07 16:09 | 47.98844 | 11.10204 | 38015 ft | 436 kts | 302° |
| 2026-05-07 16:09 | 48.02411 | 11.02891 | 38008 ft | 436 kts | 303° |
| 2026-05-07 16:10 | 48.05975 | 10.95565 | 38023 ft | 436 kts | 303° |
| 2026-05-07 16:10 | 48.09538 | 10.88221 | 38023 ft | 437 kts | 303° |
| 2026-05-07 16:11 | 48.13105 | 10.80844 | 38019 ft | 438 kts | 303° |
| 2026-05-07 16:11 | 48.16680 | 10.73435 | 38020 ft | 440 kts | 303° |
| 2026-05-07 16:12 | 48.19936 | 10.66668 | 38019 ft | 440 kts | 303° |
| 2026-05-07 16:12 | 48.23517 | 10.59206 | 38016 ft | 441 kts | 303° |
| 2026-05-07 16:13 | 48.27099 | 10.51726 | 38021 ft | 441 kts | 303° |
| 2026-05-07 16:13 | 48.30675 | 10.44237 | 38021 ft | 441 kts | 303° |
| 2026-05-07 16:14 | 48.34248 | 10.36729 | 38020 ft | 441 kts | 303° |
| 2026-05-07 16:14 | 48.37805 | 10.29236 | 38027 ft | 440 kts | 302° |
| 2026-05-07 16:15 | 48.41355 | 10.21736 | 38025 ft | 439 kts | 302° |
| 2026-05-07 16:15 | 48.44893 | 10.14242 | 38029 ft | 439 kts | 302° |
| 2026-05-07 16:16 | 48.48424 | 10.06745 | 38026 ft | 438 kts | 302° |
| 2026-05-07 16:16 | 48.51938 | 9.99261 | 38032 ft | 437 kts | 302° |
| 2026-05-07 16:17 | 48.55448 | 9.91761 | 38029 ft | 437 kts | 302° |
| 2026-05-07 16:17 | 48.58947 | 9.84266 | 38023 ft | 436 kts | 302° |
| 2026-05-07 16:18 | 48.62442 | 9.76755 | 38034 ft | 436 kts | 302° |
| 2026-05-07 16:18 | 48.65910 | 9.69290 | 38041 ft | 437 kts | 302° |
| 2026-05-07 16:19 | 48.69453 | 9.61816 | 38042 ft | 437 kts | 304° |
| 2026-05-07 16:19 | 48.73146 | 9.54466 | 38049 ft | 438 kts | 304° |
| 2026-05-07 16:20 | 48.76829 | 9.47103 | 38051 ft | 438 kts | 304° |
| 2026-05-07 16:20 | 48.80453 | 9.39659 | 38050 ft | 439 kts | 304° |
| 2026-05-07 16:21 | 48.84072 | 9.32185 | 38046 ft | 440 kts | 304° |
| 2026-05-07 16:21 | 48.87701 | 9.24684 | 38047 ft | 440 kts | 304° |
| 2026-05-07 16:22 | 48.91327 | 9.17189 | 38046 ft | 440 kts | 304° |
| 2026-05-07 16:22 | 48.94948 | 9.09682 | 38047 ft | 440 kts | 304° |
| 2026-05-07 16:23 | 48.98542 | 9.02214 | 38044 ft | 440 kts | 304° |
| 2026-05-07 16:23 | 49.02151 | 8.94692 | 38044 ft | 440 kts | 304° |
| 2026-05-07 16:24 | 49.05757 | 8.87157 | 38042 ft | 439 kts | 303° |
| 2026-05-07 16:24 | 49.09352 | 8.79619 | 38044 ft | 439 kts | 303° |
| 2026-05-07 16:25 | 49.12941 | 8.72074 | 38048 ft | 439 kts | 303° |
| 2026-05-07 16:25 | 49.16527 | 8.64515 | 38048 ft | 439 kts | 303° |
| 2026-05-07 16:26 | 49.20107 | 8.56945 | 38040 ft | 440 kts | 303° |
| 2026-05-07 16:26 | 49.23691 | 8.49348 | 38047 ft | 440 kts | 303° |
| 2026-05-07 16:27 | 49.27268 | 8.41743 | 38047 ft | 440 kts | 303° |
| 2026-05-07 16:27 | 49.30834 | 8.34145 | 38044 ft | 440 kts | 303° |
| 2026-05-07 16:28 | 49.34399 | 8.26520 | 38044 ft | 439 kts | 303° |
| 2026-05-07 16:28 | 49.37960 | 8.18881 | 38047 ft | 440 kts | 303° |
| 2026-05-07 16:29 | 49.41515 | 8.11235 | 38044 ft | 440 kts | 303° |
| 2026-05-07 16:29 | 49.45042 | 8.03631 | 38047 ft | 441 kts | 303° |
| 2026-05-07 16:30 | 49.48594 | 7.95945 | 38047 ft | 441 kts | 303° |
| 2026-05-07 16:30 | 49.52145 | 7.88242 | 38046 ft | 441 kts | 303° |
| 2026-05-07 16:31 | 49.55693 | 7.80525 | 38046 ft | 442 kts | 303° |
| 2026-05-07 16:31 | 49.59239 | 7.72792 | 38045 ft | 442 kts | 303° |
| 2026-05-07 16:32 | 49.62786 | 7.65033 | 38043 ft | 442 kts | 303° |
| 2026-05-07 16:32 | 49.66324 | 7.57266 | 38050 ft | 442 kts | 303° |
| 2026-05-07 16:33 | 49.69858 | 7.49489 | 38043 ft | 443 kts | 303° |
| 2026-05-07 16:33 | 49.73395 | 7.41687 | 38045 ft | 443 kts | 303° |
| 2026-05-07 16:34 | 49.76919 | 7.33880 | 38047 ft | 443 kts | 303° |
| 2026-05-07 16:34 | 49.80432 | 7.26080 | 38042 ft | 442 kts | 303° |
| 2026-05-07 16:35 | 49.83935 | 7.18280 | 38046 ft | 441 kts | 303° |
| 2026-05-07 16:35 | 49.87430 | 7.10476 | 38049 ft | 440 kts | 303° |
| 2026-05-07 16:36 | 49.90910 | 7.02678 | 38041 ft | 440 kts | 303° |
| 2026-05-07 16:36 | 49.94382 | 6.94878 | 38041 ft | 439 kts | 303° |
| 2026-05-07 16:37 | 49.97848 | 6.87070 | 38030 ft | 439 kts | 303° |
| 2026-05-07 16:37 | 50.01305 | 6.79260 | 38031 ft | 439 kts | 303° |
| 2026-05-07 16:38 | 50.04761 | 6.71426 | 38017 ft | 439 kts | 303° |
| 2026-05-07 16:38 | 50.08213 | 6.63580 | 38022 ft | 439 kts | 303° |
| 2026-05-07 16:39 | 50.11663 | 6.55711 | 38024 ft | 440 kts | 303° |
| 2026-05-07 16:39 | 50.15085 | 6.47882 | 38027 ft | 440 kts | 303° |
| 2026-05-07 16:40 | 50.18532 | 6.39974 | 38030 ft | 441 kts | 303° |
| 2026-05-07 16:40 | 50.21976 | 6.32052 | 38029 ft | 441 kts | 303° |
| 2026-05-07 16:41 | 50.25422 | 6.24100 | 38032 ft | 442 kts | 302° |
| 2026-05-07 16:41 | 50.28861 | 6.16143 | 38036 ft | 442 kts | 302° |
| 2026-05-07 16:42 | 50.32294 | 6.08172 | 38028 ft | 442 kts | 302° |
| 2026-05-07 16:42 | 50.35708 | 6.00223 | 38035 ft | 442 kts | 302° |
| 2026-05-07 16:42 | 50.37430 | 5.96202 | 37601 ft | 448 kts | 302° |
| 2026-05-07 16:43 | 50.39159 | 5.92162 | 37077 ft | 445 kts | 302° |
| 2026-05-07 16:43 | 50.40873 | 5.88152 | 36653 ft | 438 kts | 303° |
| 2026-05-07 16:43 | 50.42559 | 5.84199 | 36217 ft | 432 kts | 303° |
| 2026-05-07 16:43 | 50.44230 | 5.80274 | 35787 ft | 430 kts | 303° |
| 2026-05-07 16:44 | 50.45897 | 5.76350 | 35354 ft | 436 kts | 303° |
| 2026-05-07 16:44 | 50.47587 | 5.72367 | 34905 ft | 443 kts | 303° |
| 2026-05-07 16:44 | 50.49302 | 5.68321 | 34436 ft | 444 kts | 303° |
| 2026-05-07 16:44 | 50.51006 | 5.64297 | 33979 ft | 441 kts | 303° |
| 2026-05-07 16:45 | 50.52697 | 5.60296 | 33524 ft | 438 kts | 303° |
| 2026-05-07 16:45 | 50.54375 | 5.56320 | 33071 ft | 435 kts | 303° |
| 2026-05-07 16:45 | 50.56046 | 5.52356 | 32622 ft | 436 kts | 303° |
| 2026-05-07 16:45 | 50.57730 | 5.48351 | 32177 ft | 441 kts | 303° |
| 2026-05-07 16:46 | 50.59434 | 5.44295 | 31717 ft | 446 kts | 303° |
| 2026-05-07 16:46 | 50.61142 | 5.40223 | 31249 ft | 446 kts | 303° |
| 2026-05-07 16:46 | 50.62851 | 5.36144 | 30779 ft | 446 kts | 303° |
| 2026-05-07 16:46 | 50.64555 | 5.32068 | 30318 ft | 445 kts | 302° |
| 2026-05-07 16:47 | 50.66255 | 5.27996 | 29854 ft | 445 kts | 302° |
| 2026-05-07 16:47 | 50.67955 | 5.23919 | 29380 ft | 445 kts | 302° |
| 2026-05-07 16:47 | 50.69649 | 5.19849 | 28882 ft | 440 kts | 302° |
| 2026-05-07 16:47 | 50.71307 | 5.15859 | 28397 ft | 431 kts | 302° |
| 2026-05-07 16:48 | 50.72935 | 5.11937 | 27934 ft | 423 kts | 302° |
| 2026-05-07 16:48 | 50.74513 | 5.08128 | 27465 ft | 416 kts | 302° |
| 2026-05-07 16:48 | 50.76054 | 5.04403 | 27026 ft | 411 kts | 302° |
| 2026-05-07 16:48 | 50.77604 | 5.00651 | 26577 ft | 405 kts | 302° |
| 2026-05-07 16:49 | 50.79133 | 4.96944 | 26132 ft | 400 kts | 302° |
| 2026-05-07 16:49 | 50.80641 | 4.93283 | 25696 ft | 395 kts | 302° |
| 2026-05-07 16:49 | 50.82126 | 4.89671 | 25263 ft | 390 kts | 301° |
| 2026-05-07 16:49 | 50.83596 | 4.86093 | 24831 ft | 386 kts | 301° |
| 2026-05-07 16:50 | 50.85051 | 4.82545 | 24403 ft | 382 kts | 301° |
| 2026-05-07 16:50 | 50.86487 | 4.79042 | 23981 ft | 378 kts | 301° |
| 2026-05-07 16:50 | 50.87910 | 4.75561 | 23561 ft | 374 kts | 301° |
| 2026-05-07 16:50 | 50.89313 | 4.72128 | 23147 ft | 370 kts | 301° |
| 2026-05-07 16:51 | 50.90706 | 4.68716 | 22732 ft | 366 kts | 301° |
| 2026-05-07 16:51 | 50.92081 | 4.65340 | 22326 ft | 363 kts | 301° |
| 2026-05-07 16:51 | 50.93447 | 4.61984 | 21921 ft | 360 kts | 301° |
| 2026-05-07 16:51 | 50.94795 | 4.58668 | 21518 ft | 357 kts | 301° |
| 2026-05-07 16:52 | 50.95682 | 4.56481 | 21254 ft | 355 kts | 301° |
| 2026-05-07 16:52 | 50.97010 | 4.53203 | 20861 ft | 352 kts | 301° |
| 2026-05-07 16:52 | 50.98331 | 4.49942 | 20462 ft | 349 kts | 301° |
| 2026-05-07 16:52 | 50.99637 | 4.46712 | 20072 ft | 346 kts | 301° |
| 2026-05-07 16:53 | 51.00932 | 4.43510 | 19684 ft | 343 kts | 301° |
| 2026-05-07 16:53 | 51.02214 | 4.40334 | 19298 ft | 341 kts | 301° |
| 2026-05-07 16:53 | 51.03493 | 4.37160 | 18914 ft | 338 kts | 301° |
| 2026-05-07 16:53 | 51.04758 | 4.34018 | 18534 ft | 336 kts | 301° |
| 2026-05-07 16:54 | 51.06015 | 4.30891 | 18159 ft | 333 kts | 301° |
| 2026-05-07 16:54 | 51.07258 | 4.27795 | 17792 ft | 331 kts | 301° |
| 2026-05-07 16:54 | 51.08279 | 4.24536 | 17406 ft | 327 kts | 291° |
| 2026-05-07 16:54 | 51.09311 | 4.21325 | 17036 ft | 326 kts | 302° |
| 2026-05-07 16:55 | 51.10586 | 4.18422 | 16685 ft | 324 kts | 305° |
| 2026-05-07 16:55 | 51.11923 | 4.15495 | 16311 ft | 322 kts | 304° |
| 2026-05-07 16:55 | 51.13191 | 4.12623 | 15951 ft | 320 kts | 303° |
| 2026-05-07 16:55 | 51.14431 | 4.09701 | 15587 ft | 318 kts | 302° |
| 2026-05-07 16:56 | 51.15641 | 4.06761 | 15223 ft | 316 kts | 302° |
| 2026-05-07 16:56 | 51.16826 | 4.03826 | 14865 ft | 314 kts | 301° |
| 2026-05-07 16:56 | 51.19161 | 3.97964 | 14151 ft | 311 kts | 301° |
| 2026-05-07 16:57 | 51.20313 | 3.95058 | 13794 ft | 309 kts | 301° |
| 2026-05-07 16:57 | 51.21454 | 3.92174 | 13434 ft | 307 kts | 301° |
| 2026-05-07 16:57 | 51.22673 | 3.89381 | 13074 ft | 307 kts | 313° |
| 2026-05-07 16:57 | 51.24416 | 3.87508 | 12720 ft | 301 kts | 338° |
| 2026-05-07 16:58 | 51.26439 | 3.86836 | 12390 ft | 294 kts | 356° |
| 2026-05-07 16:58 | 51.28458 | 3.86761 | 12091 ft | 287 kts | 359° |
| 2026-05-07 16:58 | 51.30435 | 3.86751 | 11753 ft | 282 kts | 359° |
| 2026-05-07 16:58 | 51.32373 | 3.86741 | 11434 ft | 276 kts | 359° |
| 2026-05-07 16:59 | 51.34271 | 3.86775 | 11163 ft | 268 kts | 8° |
| 2026-05-07 16:59 | 51.36021 | 3.87652 | 10966 ft | 260 kts | 22° |
| 2026-05-07 16:59 | 51.37675 | 3.88762 | 10612 ft | 258 kts | 23° |
| 2026-05-07 16:59 | 51.39337 | 3.89899 | 10281 ft | 260 kts | 23° |
| 2026-05-07 17:00 | 51.40994 | 3.91025 | 10064 ft | 257 kts | 23° |
| 2026-05-07 17:00 | 51.42614 | 3.92114 | 9845 ft | 254 kts | 22° |
| 2026-05-07 17:00 | 51.44247 | 3.93203 | 9559 ft | 254 kts | 22° |
| 2026-05-07 17:00 | 51.45885 | 3.94289 | 9284 ft | 254 kts | 22° |
| 2026-05-07 17:01 | 51.47512 | 3.95363 | 9050 ft | 252 kts | 22° |
| 2026-05-07 17:01 | 51.49126 | 3.96424 | 8812 ft | 250 kts | 22° |
| 2026-05-07 17:01 | 51.50733 | 3.97479 | 8542 ft | 249 kts | 22° |
| 2026-05-07 17:01 | 51.52340 | 3.98532 | 8300 ft | 248 kts | 22° |
| 2026-05-07 17:02 | 51.53932 | 3.99576 | 8071 ft | 246 kts | 22° |
| 2026-05-07 17:02 | 51.55497 | 4.00602 | 7945 ft | 237 kts | 22° |
| 2026-05-07 17:02 | 51.57005 | 4.01590 | 7730 ft | 232 kts | 22° |
| 2026-05-07 17:02 | 51.58488 | 4.02564 | 7471 ft | 229 kts | 22° |
| 2026-05-07 17:03 | 51.59951 | 4.03524 | 7221 ft | 225 kts | 22° |
| 2026-05-07 17:03 | 51.60421 | 4.03833 | 7138 ft | 224 kts | 22° |
| 2026-05-07 17:03 | 51.60982 | 4.04201 | 7042 ft | 223 kts | 22° |
| 2026-05-07 17:03 | 51.62409 | 4.05139 | 6793 ft | 220 kts | 22° |
| 2026-05-07 17:04 | 51.63812 | 4.06057 | 6538 ft | 217 kts | 22° |
| 2026-05-07 17:04 | 51.65213 | 4.06979 | 6301 ft | 217 kts | 22° |
| 2026-05-07 17:04 | 51.66614 | 4.07904 | 6060 ft | 218 kts | 23° |
| 2026-05-07 17:04 | 51.68022 | 4.08836 | 5803 ft | 220 kts | 22° |
| 2026-05-07 17:05 | 51.69435 | 4.09770 | 5557 ft | 219 kts | 22° |
| 2026-05-07 17:05 | 51.70852 | 4.10701 | 5312 ft | 220 kts | 22° |
| 2026-05-07 17:05 | 51.72268 | 4.11633 | 5057 ft | 218 kts | 22° |
| 2026-05-07 17:05 | 51.73662 | 4.12550 | 4795 ft | 214 kts | 22° |
| 2026-05-07 17:06 | 51.75012 | 4.13440 | 4566 ft | 209 kts | 22° |
| 2026-05-07 17:06 | 51.76347 | 4.14322 | 4341 ft | 204 kts | 22° |
| 2026-05-07 17:06 | 51.77647 | 4.15182 | 4108 ft | 199 kts | 22° |
| 2026-05-07 17:06 | 51.78917 | 4.16020 | 3866 ft | 195 kts | 23° |
| 2026-05-07 17:07 | 51.80161 | 4.16844 | 3654 ft | 190 kts | 23° |
| 2026-05-07 17:07 | 51.81365 | 4.17643 | 3458 ft | 185 kts | 22° |
| 2026-05-07 17:07 | 51.82549 | 4.18428 | 3220 ft | 183 kts | 23° |
| 2026-05-07 17:07 | 51.83716 | 4.19203 | 2989 ft | 180 kts | 23° |
| 2026-05-07 17:08 | 51.84865 | 4.19967 | 2774 ft | 177 kts | 22° |
| 2026-05-07 17:08 | 51.85959 | 4.20789 | 2583 ft | 171 kts | 37° |
| 2026-05-07 17:08 | 51.86723 | 4.22205 | 2429 ft | 164 kts | 51° |
| 2026-05-07 17:08 | 51.87456 | 4.23621 | 2253 ft | 162 kts | 53° |
| 2026-05-07 17:09 | 51.88119 | 4.25055 | 2134 ft | 159 kts | 58° |
| 2026-05-07 17:09 | 51.88735 | 4.26545 | 2066 ft | 159 kts | 59° |
| 2026-05-07 17:09 | 51.89334 | 4.28043 | 2037 ft | 158 kts | 60° |
| 2026-05-07 17:09 | 51.89934 | 4.29553 | 1903 ft | 162 kts | 59° |
| 2026-05-07 17:10 | 51.90543 | 4.31094 | 1714 ft | 164 kts | 59° |
| 2026-05-07 17:10 | 51.91153 | 4.32624 | 1531 ft | 157 kts | 58° |
| 2026-05-07 17:10 | 51.91746 | 4.34122 | 1305 ft | 159 kts | 57° |
| 2026-05-07 17:10 | 51.92334 | 4.35658 | 1045 ft | 161 kts | 56° |
| 2026-05-07 17:11 | 51.92885 | 4.37120 | 939 ft | 148 kts | 56° |
| 2026-05-07 17:11 | 51.93479 | 4.38509 | 682 ft | 147 kts | 52° |
| 2026-05-07 17:11 | 51.94033 | 4.39875 | 482 ft | 143 kts | 57° |
| 2026-05-07 17:11 | 51.94557 | 4.41226 | 281 ft | 141 kts | 54° |
| 2026-05-07 17:12 | 51.95092 | 4.42528 | 71 ft | 139 kts | 54° |
| 2026-05-07 17:12 | 51.95593 | 4.43775 | -6 ft | 113 kts | 57° |
| 2026-05-07 17:12 | 51.95901 | 4.44555 | -6 ft | 56 kts | 57° |
| 2026-05-07 17:12 | 51.96071 | 4.44980 | -6 ft | 36 kts | 57° |
| 2026-05-07 17:13 | 51.96154 | 4.45219 | -6 ft | 21 kts | 81° |
| 2026-05-07 17:13 | 51.96130 | 4.45346 | -6 ft | 0 kts | 123° |
| 2026-05-07 17:13 | 51.96129 | 4.45348 | -6 ft | 2 kts | 123° |
| 2026-05-07 17:14 | 51.96098 | 4.45394 | -6 ft | 8 kts | 154° |
| 2026-05-07 17:14 | 51.96034 | 4.45370 | -6 ft | 11 kts | 221° |
| 2026-05-07 17:14 | 51.95986 | 4.45262 | -6 ft | 12 kts | 237° |
| 2026-05-07 17:14 | 51.95940 | 4.45145 | -6 ft | 12 kts | 238° |
| 2026-05-07 17:15 | 51.95888 | 4.45015 | -6 ft | 16 kts | 236° |
| 2026-05-07 17:15 | 51.95820 | 4.44847 | -6 ft | 20 kts | 237° |
| 2026-05-07 17:15 | 51.95736 | 4.44632 | -6 ft | 24 kts | 237° |
| 2026-05-07 17:15 | 51.95645 | 4.44408 | -6 ft | 23 kts | 237° |
| 2026-05-07 17:16 | 51.95560 | 4.44194 | -6 ft | 22 kts | 237° |
| 2026-05-07 17:16 | 51.95477 | 4.43986 | -6 ft | 22 kts | 236° |
| 2026-05-07 17:16 | 51.95395 | 4.43784 | -6 ft | 21 kts | 237° |
| 2026-05-07 17:16 | 51.95324 | 4.43604 | -6 ft | 17 kts | 237° |
| 2026-05-07 17:17 | 51.95243 | 4.43520 | -6 ft | 14 kts | 165° |
| 2026-05-07 17:17 | 51.95159 | 4.43599 | -7 ft | 14 kts | 147° |
| 2026-05-07 17:17 | 51.95092 | 4.43587 | -7 ft | 11 kts | 236° |
| 2026-05-07 17:17 | 51.95061 | 4.43504 | -7 ft | 6 kts | 237° |
| 2026-05-07 17:18 | 51.95071 | 4.43450 | -7 ft | 4 kts | 317° |
| 2026-05-07 17:18 | 51.95087 | 4.43432 | -7 ft | 3 kts | 325° |
| 2026-05-07 17:18 | 51.95089 | 4.43428 | -7 ft | 0 kts | 326° |